Americus, KS

5:55 AM CDT on August 01, 2015 (GMT -0500)
30th & Graphic Arts Rd | | Change Station
CLOSE
Current Station
Personal Weather Station
Location: Emporia, KS
Elevation: 1201 ft
Nearby Weather Stations

Elev 1201 ft 38.44 °N, 96.23 °W | Updated 44 seconds ago

Clear
Clear
72.7 °F
Feels Like 72.7 °F
N
3.0
Wind Variable Wind from SW
Gusts 5.0 mph

Today
High -- | Low -- °F
--% Chance of Precip.
Yesterday
High -- | Low -- °F
Precip. -- in
6:26 AM 8:35 PM
Full, 99% visible
Pressure 30.04 in
Visibility 3.0 miles
Clouds Clear
Dew Point 73 °F
Humidity 100%
Rainfall 0.00 in
Snow Depth Not available.
UV 0 out of 12
Pollen 6.00 out of 12
Air Quality Not available.
Flu Activity Not available.
METAR KEMP 011053Z AUTO 23004KT 3SM BR CLR 21/21 A3007 RMK AO2 SLP172 T02060206

More Conditions Fewer Conditions

Pressure 30.04 in
Visibility 3.0 miles
Clouds Clear
Dew Point 73 °F
Humidity 100%
Rainfall 0.00 in
Snow Depth Not available.
UV 0 out of 12
Pollen 6.00 out of 12
Air Quality Not available.
Flu Activity Not available.
METAR KEMP 011053Z AUTO 23004KT 3SM BR CLR 21/21 A3007 RMK AO2 SLP172 T02060206

More Conditions Fewer Conditions

10-Day Weather Forecast

×

Almanac

Astronomy

Aug. 01, 2015 Rise Set
Actual Time
Civil Twilight
Nautical Twilight
Astronomical Twilight
Moon
Length of Visible Light
Length of Day
Tomorrow will be .
, % of the Moon is Illuminated

Today's Extremes

State Highs State Lows

Community

WunderPhotos

Upload Photos

1,842,905 photos uploaded!

WunderBlogs® & News

Nearby

Air Quality

  Air Quality AQ Index Pollutant
Not available.

Snow Depth

Station Depth Elevation

Earthquake Activity

City Distance Mag. Time & Date
Minimum magnitude displayed is 2.5.

Coastal Water Temperatures

Place Temperature

Stations

Nearby Weather Stations

Station Location Temp. Windchill Dew Point Humidity Wind Precip. Elev Updated Type